Time;durP1;ratioP1;P1;durP2;ratioP2;P2;SDS_P1;SDS_P2;PMS_P1;PMS_P2;Temp;Humidity;BMP_temperature;BMP_pressure;BME280_temperature;BME280_humidity;BME280_pressure;Samples;Min_cycle;Max_cycle;Signal;HPM_P1;HPM_P2
2023/05/24 00:00:43;;;;;;;15.32;4.82;;;17.30;99.90;;;;;;5060358;28;20122;-69
2023/05/24 00:03:09;;;;;;;17.40;5.10;;;17.30;99.90;;;;;;5052342;28;20063;-68
2023/05/24 00:05:39;;;;;;;15.48;4.80;;;17.20;99.90;;;;;;5052601;28;20017;-68
2023/05/24 00:08:06;;;;;;;11.82;4.40;;;17.30;99.90;;;;;;5052418;28;20021;-69
2023/05/24 00:10:32;;;;;;;15.32;5.18;;;17.30;99.90;;;;;;5052261;28;20032;-69
2023/05/24 00:12:58;;;;;;;11.65;4.95;;;17.20;99.90;;;;;;5052465;28;20154;-68
2023/05/24 00:15:24;;;;;;;13.57;4.63;;;17.20;99.90;;;;;;5052467;28;20475;-66
2023/05/24 00:17:50;;;;;;;15.48;4.50;;;17.20;99.90;;;;;;5060145;28;20372;-68
2023/05/24 00:20:19;;;;;;;11.40;4.28;;;17.20;99.90;;;;;;5072304;28;20032;-69
2023/05/24 00:22:45;;;;;;;12.98;4.15;;;17.30;99.90;;;;;;5072305;28;20603;-68
2023/05/24 00:25:12;;;;;;;13.13;4.88;;;17.30;99.90;;;;;;5071718;28;20074;-68
2023/05/24 00:27:38;;;;;;;14.65;4.22;;;17.30;99.90;;;;;;5072046;28;20152;-68
2023/05/24 00:30:05;;;;;;;22.63;4.85;;;17.30;99.90;;;;;;5071616;28;20529;-70
2023/05/24 00:32:31;;;;;;;15.38;4.43;;;17.30;99.90;;;;;;5071773;28;20085;-68
2023/05/24 00:34:57;;;;;;;13.77;4.63;;;17.20;99.90;;;;;;5071829;28;20061;-69
2023/05/24 00:37:24;;;;;;;11.63;4.68;;;17.30;99.90;;;;;;5071770;28;20020;-68
2023/05/24 00:39:50;;;;;;;17.92;5.45;;;17.20;99.90;;;;;;5071469;28;20519;-69
2023/05/24 00:42:16;;;;;;;12.60;4.35;;;17.20;99.90;;;;;;5071937;28;20033;-69
2023/05/24 00:44:42;;;;;;;10.60;4.20;;;17.20;99.90;;;;;;5071789;28;20368;-68
2023/05/24 00:47:08;;;;;;;13.70;4.47;;;17.20;99.90;;;;;;5071482;28;20028;-68
2023/05/24 00:49:34;;;;;;;11.18;4.43;;;17.10;99.90;;;;;;5071860;28;20108;-68
2023/05/24 00:52:01;;;;;;;16.52;4.25;;;17.10;99.90;;;;;;5071678;28;20032;-68
2023/05/24 00:54:27;;;;;;;;;;;17.10;99.90;;;;;;5071715;28;20043;-69
2023/05/24 00:56:53;;;;;;;;;;;17.00;99.90;;;;;;5072011;28;19999;-69
2023/05/24 00:59:19;;;;;;;12.93;4.38;;;17.00;99.90;;;;;;5071264;28;19912;-69
2023/05/24 01:01:45;;;;;;;17.40;5.10;;;17.00;99.90;;;;;;5071205;28;20032;-68
2023/05/24 01:04:16;;;;;;;13.32;4.57;;;17.00;99.90;;;;;;5071530;28;20043;-68
2023/05/24 01:07:08;;;;;;;12.10;5.47;;;17.10;99.90;;;;;;5071123;28;20491;-68
2023/05/24 01:10:13;;;;;;;11.73;3.85;;;17.00;99.90;;;;;;5071049;28;20061;-66
2023/05/24 01:13:03;;;;;;;14.95;4.35;;;17.00;99.90;;;;;;5051334;28;20032;-69
2023/05/24 01:15:34;;;;;;;10.90;4.05;;;17.10;99.90;;;;;;5051217;28;20051;-69
2023/05/24 01:18:10;;;;;;;15.68;3.80;;;17.20;99.90;;;;;;5059964;28;20383;-68
2023/05/24 01:20:38;;;;;;;12.83;4.03;;;17.30;99.90;;;;;;5071220;28;20515;-67
2023/05/24 01:23:10;;;;;;;12.80;4.40;;;17.40;99.90;;;;;;5070724;28;20029;-67
2023/05/24 01:26:14;;;;;;;11.63;3.65;;;17.50;99.90;;;;;;5070656;28;20554;-67
2023/05/24 01:28:43;;;;;;;20.42;4.22;;;17.60;99.90;;;;;;5052529;28;20480;-68
2023/05/24 01:31:11;;;;;;;12.88;4.40;;;17.60;99.90;;;;;;5070681;28;20052;-69
2023/05/24 01:33:44;;;;;;;11.63;4.53;;;17.50;99.90;;;;;;5070767;28;20024;-68
2023/05/24 01:36:10;;;;;;;13.20;3.92;;;17.60;99.90;;;;;;5070590;28;20123;-68
2023/05/24 01:38:38;;;;;;;8.52;3.50;;;17.60;99.90;;;;;;5070793;28;20985;-69
2023/05/24 01:41:31;;;;;;;14.15;4.03;;;17.60;99.90;;;;;;5052363;28;20044;-68
2023/05/24 01:44:25;;;;;;;10.00;4.32;;;17.60;99.90;;;;;;5070139;28;20123;-68
2023/05/24 01:47:10;;;;;;;9.45;3.20;;;17.50;99.90;;;;;;5070846;28;20032;-70
2023/05/24 01:49:41;;;;;;;13.07;4.05;;;17.60;99.90;;;;;;5050855;28;20025;-68
2023/05/24 01:52:14;;;;;;;10.60;3.90;;;17.50;99.90;;;;;;5050556;28;20036;-70
2023/05/24 01:54:46;;;;;;;14.02;4.50;;;17.50;99.90;;;;;;5050267;28;20033;-70
2023/05/24 01:57:13;;;;;;;11.05;3.40;;;17.50;99.90;;;;;;5065630;28;20044;-69
2023/05/24 01:59:42;;;;;;;14.18;3.83;;;17.50;99.90;;;;;;5054034;28;20028;-68
2023/05/24 02:02:11;;;;;;;9.55;3.63;;;17.50;99.90;;;;;;5070470;28;20063;-68
2023/05/24 02:04:37;;;;;;;10.05;3.95;;;17.50;99.90;;;;;;5070476;28;20025;-68
2023/05/24 02:07:04;;;;;;;10.60;4.07;;;17.50;99.90;;;;;;5070675;28;20041;-69
2023/05/24 02:09:30;;;;;;;11.00;3.55;;;17.50;99.90;;;;;;5069995;28;20024;-68
2023/05/24 02:11:56;;;;;;;9.95;4.07;;;17.50;99.90;;;;;;5070246;28;20025;-69
2023/05/24 02:14:23;;;;;;;9.73;3.20;;;17.50;99.90;;;;;;5070333;28;20032;-69
2023/05/24 02:16:49;;;;;;;13.77;3.53;;;17.60;99.90;;;;;;5070235;28;20397;-68
2023/05/24 02:19:18;;;;;;;14.35;3.88;;;17.70;99.90;;;;;;5070164;28;20032;-68
2023/05/24 02:21:45;;;;;;;8.65;3.70;;;17.70;99.90;;;;;;5070059;28;20210;-69
2023/05/24 02:24:11;;;;;;;15.13;3.97;;;17.70;99.90;;;;;;5070004;28;20170;-69
2023/05/24 02:26:38;;;;;;;14.20;3.97;;;17.70;99.90;;;;;;5070276;28;20082;-69
2023/05/24 02:29:04;;;;;;;9.65;3.53;;;17.70;99.90;;;;;;5069969;28;20514;-69
2023/05/24 02:31:30;;;;;;;13.63;4.10;;;17.70;99.90;;;;;;5069836;28;20024;-69
2023/05/24 02:33:57;;;;;;;8.25;3.95;;;17.70;99.90;;;;;;5070221;28;20040;-70
2023/05/24 02:36:23;;;;;;;13.85;3.80;;;17.60;99.90;;;;;;5070004;28;20047;-69
2023/05/24 02:38:50;;;;;;;10.52;3.40;;;17.70;99.90;;;;;;5070149;28;20032;-69
2023/05/24 02:41:17;;;;;;;10.20;3.72;;;17.70;99.90;;;;;;5070101;28;20502;-69
2023/05/24 02:43:44;;;;;;;11.55;3.70;;;17.60;99.90;;;;;;5070095;28;20107;-70
2023/05/24 02:46:10;;;;;;;9.95;3.72;;;17.70;99.90;;;;;;5070026;28;20116;-68
2023/05/24 02:48:36;;;;;;;12.40;3.47;;;17.80;99.90;;;;;;5070010;28;20080;-69
2023/05/24 02:51:03;;;;;;;10.35;3.88;;;17.80;99.90;;;;;;5069822;28;20404;-68
2023/05/24 02:53:30;;;;;;;12.75;3.58;;;17.70;99.90;;;;;;5070715;28;20033;-69
2023/05/24 02:55:57;;;;;;;11.68;3.88;;;17.80;99.90;;;;;;5073398;28;20085;-69
2023/05/24 02:58:23;;;;;;;13.50;4.60;;;17.70;99.90;;;;;;5074213;28;20472;-68
2023/05/24 03:00:49;;;;;;;11.43;3.67;;;17.70;99.90;;;;;;5073537;28;20032;-69
2023/05/24 03:03:15;;;;;;;14.13;4.15;;;17.70;99.90;;;;;;5073564;28;20481;-68
2023/05/24 03:05:42;;;;;;;8.88;3.50;;;17.70;99.90;;;;;;5074349;28;20074;-70
2023/05/24 03:08:08;;;;;;;13.80;3.42;;;17.60;99.90;;;;;;5075195;28;20020;-69
2023/05/24 03:10:34;;;;;;;9.40;3.80;;;17.60;99.90;;;;;;5074624;28;20090;-69
2023/05/24 03:13:00;;;;;;;9.15;3.40;;;17.60;99.90;;;;;;5075133;28;20031;-70
2023/05/24 03:15:26;;;;;;;13.77;4.10;;;17.60;99.90;;;;;;5075072;28;20064;-69
2023/05/24 03:17:52;;;;;;;8.35;3.40;;;17.60;99.90;;;;;;5074639;28;20049;-68
2023/05/24 03:20:19;;;;;;;14.10;3.60;;;17.60;99.90;;;;;;5074835;28;20059;-69
2023/05/24 03:22:46;;;;;;;10.98;3.60;;;17.60;99.90;;;;;;5056119;28;20020;-70
2023/05/24 03:25:12;;;;;;;12.65;3.75;;;17.60;99.90;;;;;;5074808;28;20024;-69
2023/05/24 03:27:38;;;;;;;10.20;3.80;;;17.50;99.90;;;;;;5074433;28;20384;-69
2023/05/24 03:30:05;;;;;;;12.45;3.70;;;17.50;99.90;;;;;;5074019;28;20414;-69
2023/05/24 03:32:32;;;;;;;8.00;3.75;;;17.50;99.90;;;;;;5074057;28;20487;-69
2023/05/24 03:35:00;;;;;;;;;;;17.50;99.90;;;;;;5075610;28;20040;-68
2023/05/24 03:37:29;;;;;;;14.45;3.72;;;17.50;99.90;;;;;;5074801;28;19904;-70
2023/05/24 03:39:55;;;;;;;11.80;3.65;;;17.50;99.90;;;;;;5074581;28;20024;-68
2023/05/24 03:42:21;;;;;;;12.77;4.10;;;17.50;99.90;;;;;;5074755;28;20033;-69
2023/05/24 03:44:47;;;;;;;12.43;3.78;;;17.50;99.90;;;;;;5074765;28;20324;-69
2023/05/24 03:47:13;;;;;;;12.00;3.55;;;17.40;99.90;;;;;;5074813;28;20460;-68
2023/05/24 03:49:39;;;;;;;11.13;3.50;;;17.40;99.90;;;;;;5074591;28;20025;-69
2023/05/24 03:52:05;;;;;;;9.57;3.30;;;17.40;99.90;;;;;;5074996;28;20089;-68
2023/05/24 03:54:31;;;;;;;12.93;3.50;;;17.40;99.90;;;;;;5074307;28;20078;-69
2023/05/24 03:56:57;;;;;;;12.30;3.70;;;17.50;99.90;;;;;;5074745;28;20251;-69
2023/05/24 03:59:24;;;;;;;8.38;3.30;;;17.50;99.90;;;;;;5056232;28;20271;-69
2023/05/24 04:01:50;;;;;;;9.88;3.40;;;17.60;99.90;;;;;;5074470;28;20016;-68
2023/05/24 04:04:16;;;;;;;11.93;3.67;;;17.50;99.90;;;;;;5074402;28;20016;-69
2023/05/24 04:06:42;;;;;;;12.52;3.67;;;17.60;99.90;;;;;;5073663;28;20263;-71
2023/05/24 04:09:08;;;;;;;13.82;3.95;;;17.60;99.90;;;;;;5074166;28;20056;-70
2023/05/24 04:11:35;;;;;;;10.20;3.80;;;17.50;99.90;;;;;;5074251;28;20035;-71
2023/05/24 04:14:01;;;;;;;11.90;4.00;;;17.60;99.90;;;;;;5074156;28;20029;-71
2023/05/24 04:16:27;;;;;;;12.73;4.07;;;17.40;99.90;;;;;;5074293;28;20035;-71
2023/05/24 04:18:55;;;;;;;14.73;4.63;;;17.30;99.90;;;;;;5074660;28;20040;-71
2023/05/24 04:21:22;;;;;;;13.20;4.15;;;17.30;99.90;;;;;;5074728;28;20042;-71
2023/05/24 04:23:48;;;;;;;13.75;3.97;;;17.30;99.90;;;;;;5074426;28;20375;-71
2023/05/24 04:26:15;;;;;;;9.02;4.05;;;17.30;99.90;;;;;;5074586;28;20036;-68
2023/05/24 04:28:41;;;;;;;12.77;3.80;;;17.40;99.90;;;;;;5074630;28;20017;-71
2023/05/24 04:31:08;;;;;;;7.68;3.78;;;17.50;99.90;;;;;;5074613;28;20032;-70
2023/05/24 04:33:35;;;;;;;9.77;3.60;;;17.50;99.90;;;;;;5074402;28;20430;-71
2023/05/24 04:36:02;;;;;;;12.13;3.78;;;17.50;99.90;;;;;;5074721;28;20032;-71
2023/05/24 04:38:30;;;;;;;12.30;3.88;;;17.60;99.90;;;;;;5074618;28;20104;-70
2023/05/24 04:41:00;;;;;;;9.07;3.95;;;17.70;99.90;;;;;;5055991;28;20035;-71
2023/05/24 04:43:27;;;;;;;8.93;3.83;;;17.60;99.90;;;;;;5073772;28;20074;-70
2023/05/24 04:45:54;;;;;;;10.68;3.88;;;17.60;99.90;;;;;;5073941;28;20031;-69
2023/05/24 04:48:23;;;;;;;10.85;3.50;;;17.60;99.90;;;;;;5073688;28;20032;-69
2023/05/24 04:50:57;;;;;;;10.18;3.78;;;17.60;99.90;;;;;;5073820;28;20490;-70
2023/05/24 04:53:24;;;;;;;7.95;3.53;;;17.50;99.90;;;;;;5073543;28;20404;-68
2023/05/24 04:55:51;;;;;;;9.68;3.63;;;17.50;99.90;;;;;;5072753;28;20032;-70
2023/05/24 04:58:17;;;;;;;;;;;17.50;99.90;;;;;;5073389;28;20103;-70
2023/05/24 05:00:43;;;;;;;8.40;3.83;;;17.50;99.90;;;;;;5072603;28;20285;-70
2023/05/24 05:03:10;;;;;;;8.90;3.85;;;17.70;99.90;;;;;;5072450;28;20056;-70
2023/05/24 05:05:36;;;;;;;12.63;4.30;;;18.00;99.90;;;;;;5071964;28;20020;-69
2023/05/24 05:08:03;;;;;;;8.23;3.85;;;18.50;99.90;;;;;;5073032;28;20127;-67
2023/05/24 05:10:29;;;;;;;10.32;3.97;;;18.60;99.90;;;;;;5072794;28;20021;-70
2023/05/24 05:12:55;;;;;;;11.88;3.55;;;19.00;99.90;;;;;;5073099;28;20491;-69
2023/05/24 05:15:22;;;;;;;20.85;4.15;;;19.40;99.90;;;;;;5072654;28;20152;-69
2023/05/24 05:17:49;;;;;;;11.40;3.88;;;19.50;99.90;;;;;;5071899;28;20040;-71
2023/05/24 05:20:15;;;;;;;10.65;3.88;;;20.00;99.90;;;;;;5073305;28;20029;-68
2023/05/24 05:22:48;;;;;;;10.38;4.00;;;20.90;99.90;;;;;;5072795;28;20040;-70
2023/05/24 05:25:17;;;;;;;10.98;3.83;;;21.10;99.90;;;;;;5072439;28;20016;-70
2023/05/24 05:27:43;;;;;;;7.38;3.70;;;21.30;99.90;;;;;;5071747;28;20104;-69
2023/05/24 05:30:09;;;;;;;13.90;4.20;;;21.10;99.90;;;;;;5071844;28;20020;-68
2023/05/24 05:32:37;;;;;;;8.93;3.70;;;21.10;99.90;;;;;;5072164;28;20033;-68
2023/05/24 05:35:03;;;;;;;10.00;3.78;;;21.40;99.90;;;;;;5072238;28;20119;-73
2023/05/24 05:37:30;;;;;;;8.57;3.70;;;21.60;99.90;;;;;;5072345;28;20049;-68
2023/05/24 05:39:56;;;;;;;7.45;3.45;;;22.00;99.90;;;;;;5072247;28;20480;-68
2023/05/24 05:42:22;;;;;;;10.75;3.42;;;22.00;99.90;;;;;;5072727;28;20013;-70
2023/05/24 05:44:48;;;;;;;7.90;3.58;;;22.50;99.90;;;;;;5072151;28;20025;-69
2023/05/24 05:47:14;;;;;;;8.52;3.45;;;23.10;99.90;;;;;;5071894;28;20017;-69
2023/05/24 05:49:41;;;;;;;9.80;3.78;;;23.50;99.90;;;;;;5071806;28;20035;-68
2023/05/24 05:52:06;;;;;;;;;;;23.60;99.90;;;;;;5072089;28;20095;-67
2023/05/24 05:54:33;;;;;;;7.85;3.78;;;23.30;99.90;;;;;;5071677;28;20332;-70
2023/05/24 05:56:59;;;;;;;10.45;3.67;;;23.80;99.90;;;;;;5071490;28;20471;-69
2023/05/24 05:59:25;;;;;;;9.05;3.45;;;24.00;99.90;;;;;;5071519;28;20024;-69
2023/05/24 06:01:51;;;;;;;13.43;3.40;;;24.50;99.90;;;;;;5071691;28;20032;-70
2023/05/24 06:04:18;;;;;;;15.45;3.72;;;24.30;99.90;;;;;;5052879;28;20432;-68
2023/05/24 06:06:49;;;;;;;;;;;25.10;99.90;;;;;;5071569;28;20472;-68
2023/05/24 06:09:15;;;;;;;10.57;3.63;;;24.20;99.90;;;;;;5071323;28;19909;-69
2023/05/24 06:11:43;;;;;;;;;;;24.60;99.90;;;;;;5071294;28;20146;-68
2023/05/24 06:14:18;;;;;;;15.48;4.25;;;24.50;99.90;;;;;;5071150;28;19912;-68
2023/05/24 06:16:44;;;;;;;8.63;3.15;;;23.50;99.90;;;;;;5071461;28;20028;-68
2023/05/24 06:19:12;;;;;;;;;;;23.80;99.90;;;;;;5071551;28;20048;-70
2023/05/24 06:21:45;;;;;;;8.00;3.28;;;24.30;99.90;;;;;;5071541;28;20276;-69
2023/05/24 06:24:13;;;;;;;6.95;3.47;;;24.70;99.90;;;;;;5071092;28;20033;-68
2023/05/24 06:26:40;;;;;;;9.00;3.38;;;24.30;99.90;;;;;;5071422;28;20048;-69
2023/05/24 06:29:08;;;;;;;15.50;3.50;;;25.10;99.90;;;;;;5073662;28;20032;-69
2023/05/24 06:31:34;;;;;;;14.02;3.42;;;25.70;99.90;;;;;;5075189;28;20075;-68
2023/05/24 06:34:00;;;;;;;12.88;3.15;;;26.30;99.90;;;;;;5075265;28;20226;-70
2023/05/24 06:36:26;;;;;;;13.07;3.40;;;26.00;99.90;;;;;;5075862;28;20021;-69
2023/05/24 06:38:52;;;;;;;7.88;2.97;;;26.30;99.90;;;;;;5076420;28;20472;-71
2023/05/24 06:41:18;;;;;;;10.20;3.28;;;27.30;99.90;;;;;;5076443;28;20028;-71
2023/05/24 06:43:45;;;;;;;8.02;3.40;;;28.20;99.90;;;;;;5076968;28;20056;-68
2023/05/24 06:46:11;;;;;;;12.90;3.45;;;28.80;99.90;;;;;;5076357;28;20017;-71
2023/05/24 06:48:37;;;;;;;9.68;3.00;;;29.50;99.90;;;;;;5058471;28;20064;-66
2023/05/24 06:51:03;;;;;;;7.78;3.08;;;28.70;99.90;;;;;;5076417;28;20059;-72
2023/05/24 06:53:29;;;;;;;;;;;28.80;99.90;;;;;;5077264;28;20028;-70
2023/05/24 06:55:55;;;;;;;10.07;3.20;;;28.20;99.90;;;;;;5075843;28;19908;-71
2023/05/24 06:58:21;;;;;;;7.25;3.00;;;26.50;99.90;;;;;;5075347;28;20461;-69
2023/05/24 07:00:49;;;;;;;11.50;3.28;;;25.90;99.90;;;;;;5074809;28;20028;-70
2023/05/24 07:03:15;;;;;;;6.63;3.20;;;27.80;99.90;;;;;;5074768;28;20032;-70
2023/05/24 07:05:41;;;;;;;11.75;3.30;;;27.80;99.90;;;;;;5074058;28;20025;-70
2023/05/24 07:08:08;;;;;;;9.57;3.03;;;28.70;99.90;;;;;;5073765;28;20032;-70
2023/05/24 07:10:34;;;;;;;7.50;2.75;;;30.00;99.90;;;;;;5074614;28;20028;-70
2023/05/24 07:13:00;;;;;;;9.32;3.08;;;30.30;99.90;;;;;;5074639;28;20021;-71
2023/05/24 07:15:26;;;;;;;11.68;3.25;;;31.10;99.90;;;;;;5074482;28;20044;-70
2023/05/24 07:17:52;;;;;;;9.15;2.88;;;31.40;99.90;;;;;;5074246;28;20032;-71
2023/05/24 07:20:18;;;;;;;8.63;3.25;;;31.10;99.90;;;;;;5074908;28;20108;-70
2023/05/24 07:22:44;;;;;;;;;;;31.30;99.90;;;;;;5074585;28;20021;-69
2023/05/24 07:25:10;;;;;;;11.60;3.35;;;30.70;99.90;;;;;;5074495;28;19978;-69
2023/05/24 07:27:36;;;;;;;;;;;30.30;99.90;;;;;;5075365;28;20028;-71
2023/05/24 07:30:03;;;;;;;6.28;2.83;;;30.30;99.90;;;;;;5074449;28;19908;-70
2023/05/24 07:32:31;;;;;;;12.20;3.17;;;29.20;99.90;;;;;;5074642;28;20035;-70
2023/05/24 07:34:57;;;;;;;16.10;3.67;;;28.40;99.90;;;;;;5074574;28;20032;-70
2023/05/24 07:37:23;;;;;;;7.57;2.92;;;27.60;99.90;;;;;;5056180;28;20053;-70
2023/05/24 07:39:50;;;;;;;5.93;3.22;;;26.30;99.90;;;;;;5073600;28;20030;-69
2023/05/24 07:42:17;;;;;;;8.40;3.22;;;25.80;99.90;;;;;;5074721;28;20078;-70
2023/05/24 07:44:43;;;;;;;8.75;3.15;;;25.10;99.90;;;;;;5074657;28;20490;-70
2023/05/24 07:47:09;;;;;;;9.88;3.30;;;24.30;99.90;;;;;;5074112;28;20036;-70
2023/05/24 07:49:35;;;;;;;12.27;3.55;;;25.50;99.90;;;;;;5073282;28;20029;-70
2023/05/24 07:52:03;;;;;;;9.93;3.40;;;26.10;99.90;;;;;;5073545;28;20020;-70
2023/05/24 07:54:29;;;;;;;8.15;3.58;;;25.80;99.90;;;;;;5072718;28;20028;-69
2023/05/24 07:56:56;;;;;;;11.57;3.25;;;24.80;99.90;;;;;;5073122;28;20479;-69
2023/05/24 07:59:22;;;;;;;7.70;2.90;;;24.80;99.90;;;;;;5071911;28;20050;-70
2023/05/24 08:01:48;;;;;;;;;;;25.50;99.90;;;;;;5053369;28;20440;-69
2023/05/24 08:04:15;;;;;;;7.68;3.08;;;25.40;99.90;;;;;;5052749;28;20394;-69
2023/05/24 08:06:41;;;;;;;8.32;3.33;;;24.60;99.90;;;;;;5052827;28;20017;-70
2023/05/24 08:09:08;;;;;;;;;;;25.40;99.90;;;;;;5052957;28;20130;-69
2023/05/24 08:11:34;;;;;;;10.07;3.65;;;26.50;99.90;;;;;;5066895;28;19911;-70
2023/05/24 08:14:00;;;;;;;9.93;3.53;;;26.50;99.90;;;;;;5072567;28;20037;-68
2023/05/24 08:16:26;;;;;;;14.13;4.07;;;26.80;99.90;;;;;;5072765;28;20051;-68
2023/05/24 08:18:52;;;;;;;14.00;3.60;;;27.20;99.90;;;;;;5072810;28;20098;-70
2023/05/24 08:21:18;;;;;;;10.10;4.05;;;27.50;99.90;;;;;;5073612;28;20028;-68
2023/05/24 08:23:44;;;;;;;9.68;4.35;;;27.80;99.90;;;;;;5074118;28;20464;-68
2023/05/24 08:26:10;;;;;;;14.27;4.10;;;27.70;99.90;;;;;;5073034;28;20033;-72
2023/05/24 08:28:36;;;;;;;13.80;4.32;;;27.80;99.90;;;;;;5073581;28;20020;-70
2023/05/24 08:31:03;;;;;;;12.45;4.05;;;27.60;99.90;;;;;;5073593;28;20023;-72
2023/05/24 08:33:29;;;;;;;13.02;4.20;;;27.70;99.90;;;;;;5072854;28;20036;-72
2023/05/24 08:35:55;;;;;;;11.48;5.50;;;27.50;99.90;;;;;;5073723;28;20130;-74
2023/05/24 08:38:21;;;;;;;14.10;4.25;;;27.60;99.90;;;;;;5073110;28;20020;-73
2023/05/24 08:40:47;;;;;;;11.75;3.75;;;26.50;99.90;;;;;;5072984;28;20495;-73
2023/05/24 08:43:14;;;;;;;13.43;4.38;;;27.10;99.90;;;;;;5072909;28;20468;-74
2023/05/24 08:45:41;;;;;;;14.52;4.05;;;27.20;99.90;;;;;;5055088;28;20531;-74
2023/05/24 08:48:08;;;;;;;10.45;4.35;;;27.00;99.90;;;;;;5072678;28;20028;-74
2023/05/24 08:50:34;;;;;;;12.32;3.67;;;26.80;99.90;;;;;;5072899;28;20031;-74
2023/05/24 08:53:02;;;;;;;11.85;4.18;;;27.20;99.90;;;;;;5072783;28;20056;-75
2023/05/24 08:55:30;;;;;;;9.73;4.05;;;27.40;99.90;;;;;;5072418;28;20098;-75
2023/05/24 08:57:59;;;;;;;11.00;3.92;;;27.60;99.90;;;;;;5055218;28;20364;-76
2023/05/24 09:00:26;;;;;;;8.10;3.47;;;27.50;99.90;;;;;;5073890;28;20111;-74
2023/05/24 09:02:52;;;;;;;9.80;3.40;;;27.30;99.90;;;;;;5073707;28;20020;-75
2023/05/24 09:05:20;;;;;;;8.00;3.67;;;27.20;99.90;;;;;;5072575;28;20052;-75
2023/05/24 09:07:48;;;;;;;10.98;3.88;;;26.80;99.90;;;;;;5072642;28;20529;-75
2023/05/24 09:10:16;;;;;;;8.27;3.40;;;26.70;99.90;;;;;;5071847;28;20392;-73
2023/05/24 09:12:48;;;;;;;11.77;3.55;;;26.90;99.90;;;;;;5071694;28;20387;-70
2023/05/24 09:15:14;;;;;;;9.63;3.42;;;26.70;99.90;;;;;;5071731;28;20472;-73
2023/05/24 09:17:41;;;;;;;11.82;3.75;;;26.70;99.90;;;;;;5071689;28;20040;-73
2023/05/24 09:20:09;;;;;;;10.60;3.80;;;26.30;99.90;;;;;;5072113;28;20119;-74
2023/05/24 09:22:37;;;;;;;9.88;3.40;;;26.20;99.90;;;;;;5072149;28;20050;-72
2023/05/24 09:25:06;;;;;;;9.38;3.58;;;26.40;99.90;;;;;;5071825;28;20032;-75
2023/05/24 09:27:34;;;;;;;11.82;3.78;;;26.40;99.90;;;;;;5071982;28;20027;-74
2023/05/24 09:30:00;;;;;;;13.48;4.10;;;26.40;99.90;;;;;;5071817;28;20017;-74
2023/05/24 09:32:27;;;;;;;9.48;3.33;;;26.40;99.90;;;;;;5071827;28;20036;-74
2023/05/24 09:34:56;;;;;;;9.50;3.90;;;25.50;99.90;;;;;;5072266;28;20476;-75
2023/05/24 09:37:26;;;;;;;25.00;4.65;;;25.50;99.90;;;;;;5071610;28;20020;-74
2023/05/24 09:39:52;;;;;;;15.35;3.95;;;25.70;99.90;;;;;;5071920;28;20025;-74
2023/05/24 09:42:23;;;;;;;7.38;3.05;;;26.10;99.90;;;;;;5071788;28;20021;-74
2023/05/24 09:45:08;;;;;;;12.85;3.25;;;26.10;99.90;;;;;;5072160;28;20044;-73
2023/05/24 09:47:39;;;;;;;10.02;3.55;;;26.20;99.90;;;;;;5071644;28;20419;-73
2023/05/24 09:50:11;;;;;;;9.65;3.35;;;26.40;99.90;;;;;;5071885;28;20117;-74
2023/05/24 09:52:38;;;;;;;12.88;3.72;;;26.30;99.90;;;;;;5071862;28;20151;-73
2023/05/24 09:55:16;;;;;;;10.25;3.28;;;26.20;99.90;;;;;;5071212;28;20039;-74
2023/05/24 09:58:07;;;;;;;11.02;3.05;;;25.80;99.90;;;;;;5071522;28;20472;-73
2023/05/24 10:00:38;;;;;;;12.20;3.88;;;26.00;99.90;;;;;;5061129;28;20046;-71
2023/05/24 10:03:07;;;;;;;9.20;3.05;;;26.00;99.90;;;;;;5071596;28;20032;-75
2023/05/24 10:05:36;;;;;;;9.85;3.20;;;25.60;99.90;;;;;;5072183;28;20025;-73
2023/05/24 10:08:07;;;;;;;13.57;3.53;;;25.40;99.90;;;;;;5071468;28;20074;-73
2023/05/24 10:10:34;;;;;;;7.30;3.33;;;25.50;99.90;;;;;;5071438;28;20025;-74
2023/05/24 10:13:01;;;;;;;9.93;3.70;;;25.50;99.90;;;;;;5071751;28;20031;-73
2023/05/24 10:15:28;;;;;;;12.43;3.50;;;25.50;99.90;;;;;;5070937;28;20475;-73
2023/05/24 10:17:56;;;;;;;11.35;3.97;;;25.70;99.90;;;;;;5070779;28;20044;-74
2023/05/24 10:20:23;;;;;;;9.98;3.65;;;25.30;99.90;;;;;;5070899;28;20119;-74
2023/05/24 10:22:59;;;;;;;9.43;3.65;;;25.30;99.90;;;;;;5070973;28;20115;-72
2023/05/24 10:25:27;;;;;;;9.55;3.33;;;25.60;99.90;;;;;;5071160;28;20028;-74
2023/05/24 10:28:00;;;;;;;7.68;3.28;;;25.40;99.90;;;;;;5070887;28;20108;-74
2023/05/24 10:31:03;;;;;;;13.88;3.58;;;25.30;99.90;;;;;;5071359;28;20028;-74
2023/05/24 10:33:33;;;;;;;8.73;3.05;;;25.30;99.90;;;;;;5070485;28;20025;-73
2023/05/24 10:35:59;;;;;;;9.77;3.05;;;25.10;99.90;;;;;;5071071;28;20467;-72
2023/05/24 10:38:26;;;;;;;8.15;2.90;;;25.10;99.90;;;;;;5071358;28;20062;-73
2023/05/24 10:40:52;;;;;;;8.23;3.22;;;24.60;99.90;;;;;;5070666;28;20024;-73
2023/05/24 10:43:20;;;;;;;8.38;3.00;;;24.80;99.90;;;;;;5071115;28;20537;-72
2023/05/24 10:45:50;;;;;;;12.95;3.53;;;25.20;99.90;;;;;;5071098;28;20064;-72
2023/05/24 10:48:16;;;;;;;7.72;3.15;;;25.20;99.90;;;;;;5070883;28;20115;-72
2023/05/24 10:50:43;;;;;;;10.05;3.22;;;25.20;99.90;;;;;;5071416;28;20025;-74
2023/05/24 10:53:17;;;;;;;9.13;3.70;;;24.90;99.90;;;;;;5070983;28;20025;-75
2023/05/24 10:56:02;;;;;;;5.63;2.78;;;25.20;99.90;;;;;;5070718;28;20044;-74
2023/05/24 10:59:05;;;;;;;8.25;3.25;;;25.40;99.90;;;;;;5070778;28;20021;-74
2023/05/24 11:01:32;;;;;;;9.50;3.17;;;25.50;99.90;;;;;;5009084;28;20041;-73
2023/05/24 11:04:15;;;;;;;13.07;3.55;;;25.60;99.90;;;;;;4991893;28;20049;-72
2023/05/24 11:07:02;;;;;;;6.60;2.80;;;25.40;99.90;;;;;;5008997;28;20026;-73
2023/05/24 11:09:29;;;;;;;10.25;3.40;;;25.50;99.90;;;;;;4992124;28;20026;-73
2023/05/24 11:12:01;;;;;;;12.43;4.60;;;25.50;99.90;;;;;;5009279;28;20042;-74
2023/05/24 11:14:29;;;;;;;7.72;3.58;;;25.30;99.90;;;;;;5009655;28;20037;-74
2023/05/24 11:16:56;;;;;;;12.10;3.80;;;25.40;99.90;;;;;;5012813;28;20034;-73
2023/05/24 11:19:52;;;;;;;11.32;4.20;;;25.20;99.90;;;;;;5033029;28;20120;-73
2023/05/24 11:22:20;;;;;;;8.07;3.50;;;25.00;99.90;;;;;;4954847;29;20133;-74
2023/05/24 11:24:47;;;;;;;8.98;2.92;;;25.10;99.90;;;;;;4954003;29;20054;-74
2023/05/24 11:27:14;;;;;;;13.70;3.50;;;24.60;99.90;;;;;;4954410;29;20035;-73
2023/05/24 11:29:44;;;;;;;6.22;3.20;;;24.30;99.90;;;;;;4954584;29;20129;-76
2023/05/24 11:32:15;;;;;;;8.77;3.10;;;24.40;99.90;;;;;;4954896;29;20076;-75
2023/05/24 11:34:43;;;;;;;8.38;3.60;;;24.50;99.90;;;;;;4954658;29;20047;-75
2023/05/24 11:37:10;;;;;;;11.35;3.17;;;24.60;99.90;;;;;;4975469;28;20030;-75
2023/05/24 11:39:37;;;;;;;10.30;3.00;;;24.10;99.90;;;;;;4994241;28;20096;-74
2023/05/24 11:42:03;;;;;;;;;;;24.30;99.90;;;;;;4993538;28;20036;-75
2023/05/24 11:44:31;;;;;;;10.38;3.72;;;24.50;99.90;;;;;;4992965;28;19937;-74
2023/05/24 11:46:59;;;;;;;5.55;3.00;;;24.60;99.90;;;;;;4993370;28;20049;-75
2023/05/24 11:49:26;;;;;;;5.60;2.88;;;24.80;99.90;;;;;;4992747;28;20093;-75
2023/05/24 11:51:56;;;;;;;7.72;2.90;;;24.60;99.90;;;;;;4992683;28;20076;-74
2023/05/24 11:54:23;;;;;;;9.15;3.38;;;24.30;99.90;;;;;;4992681;28;20075;-73
2023/05/24 11:56:51;;;;;;;6.60;3.13;;;24.30;99.90;;;;;;4992345;28;20561;-75
2023/05/24 11:59:24;;;;;;;9.55;3.20;;;24.20;99.90;;;;;;5048815;28;20040;-74
2023/05/24 12:02:00;;;;;;;6.15;3.00;;;24.30;99.90;;;;;;5080319;28;20062;-75
2023/05/24 12:04:27;;;;;;;6.35;3.00;;;24.30;99.90;;;;;;5094950;28;20175;-73
2023/05/24 12:06:54;;;;;;;8.70;3.33;;;24.50;99.90;;;;;;5078324;28;20488;-76
2023/05/24 12:09:20;;;;;;;;;;;24.40;99.90;;;;;;5074313;28;20064;-77
2023/05/24 12:11:49;;;;;;;6.80;3.10;;;24.50;99.90;;;;;;5073834;28;19946;-76
2023/05/24 12:14:34;;;;;;;8.20;3.55;;;24.80;99.90;;;;;;5074357;28;20024;-78
2023/05/24 12:17:00;;;;;;;6.73;3.07;;;24.70;99.90;;;;;;5074030;28;20056;-76
2023/05/24 12:19:41;;;;;;;10.80;3.50;;;24.60;99.90;;;;;;5074181;28;20095;-76
2023/05/24 12:22:08;;;;;;;12.40;3.42;;;24.60;99.90;;;;;;5073937;28;20029;-75
2023/05/24 12:24:36;;;;;;;8.40;3.30;;;24.30;99.90;;;;;;5073793;28;20036;-75
2023/05/24 12:27:06;;;;;;;9.27;3.25;;;24.50;99.90;;;;;;5073844;28;20096;-76
2023/05/24 12:29:37;;;;;;;8.75;3.47;;;24.70;99.90;;;;;;5074366;28;20028;-77
2023/05/24 12:32:03;;;;;;;12.00;3.35;;;24.60;99.90;;;;;;5063477;28;20020;-75
2023/05/24 12:34:30;;;;;;;9.75;3.28;;;24.90;99.90;;;;;;5094684;28;20043;-76
2023/05/24 12:36:56;;;;;;;14.00;3.10;;;25.00;99.90;;;;;;5094992;28;20017;-78
2023/05/24 12:39:30;;;;;;;9.45;3.22;;;24.90;99.90;;;;;;5094719;28;20024;-75
2023/05/24 12:41:57;;;;;;;13.32;3.30;;;25.00;99.90;;;;;;5094088;28;20020;-74
2023/05/24 12:44:25;;;;;;;8.65;3.38;;;24.00;99.90;;;;;;5094428;28;20028;-76
2023/05/24 12:46:55;;;;;;;10.55;3.40;;;23.70;99.90;;;;;;5093980;28;20028;-75
2023/05/24 12:49:23;;;;;;;11.75;3.60;;;23.60;99.90;;;;;;5094005;28;20405;-74
2023/05/24 12:51:50;;;;;;;19.10;4.13;;;23.70;99.90;;;;;;5093936;28;20050;-73